createdAt,value
2019-05-10T00:00:24.189Z,75.80
2019-05-10T00:03:13.281Z,75.99
2019-05-10T00:06:02.388Z,75.87
2019-05-10T00:08:47.784Z,75.42
2019-05-10T00:11:34.203Z,75.58
2019-05-10T00:14:27.231Z,75.97
2019-05-10T00:17:00.665Z,76.55
2019-05-10T00:19:32.065Z,76.58
2019-05-10T00:22:04.645Z,76.69
2019-05-10T00:24:35.912Z,76.19
2019-05-10T00:27:07.486Z,76.49
2019-05-10T00:29:38.896Z,76.46
2019-05-10T00:32:10.315Z,75.92
2019-05-10T00:34:41.824Z,75.85
2019-05-10T00:37:13.172Z,76.44
2019-05-10T00:39:44.689Z,76.09
2019-05-10T00:42:16.091Z,76.06
2019-05-10T00:44:47.525Z,75.75
2019-05-10T00:47:18.875Z,75.74
2019-05-10T00:49:50.146Z,76.20
2019-05-10T00:52:21.521Z,76.77
2019-05-10T00:54:52.820Z,77.31
2019-05-10T00:57:24.095Z,77.54
2019-05-10T00:59:55.410Z,77.36
2019-05-10T01:02:26.664Z,77.63
2019-05-10T01:04:58.043Z,78.09
2019-05-10T01:07:29.324Z,78.52
2019-05-10T01:10:00.615Z,78.66
2019-05-10T01:12:31.881Z,77.78
2019-05-10T01:15:03.469Z,77.35
2019-05-10T01:17:34.890Z,77.86
2019-05-10T01:20:08.080Z,78.58
2019-05-10T01:22:39.578Z,78.33
2019-05-10T01:25:11.897Z,78.75
2019-05-10T01:27:43.324Z,79.07
2019-05-10T01:30:15.522Z,78.75
2019-05-10T01:32:46.991Z,78.48
2019-05-10T01:35:18.327Z,79.27
2019-05-10T01:37:49.669Z,79.54
2019-05-10T01:40:22.252Z,79.57
2019-05-10T01:42:53.609Z,79.67
2019-05-10T01:45:25.304Z,79.34
2019-05-10T01:47:56.703Z,79.55
2019-05-10T01:50:28.112Z,78.66
2019-05-10T01:52:59.390Z,79.99
2019-05-10T01:55:30.743Z,80.19
2019-05-10T01:58:02.385Z,80.11
2019-05-10T02:00:34.882Z,80.54
2019-05-10T02:03:06.340Z,81.11
2019-05-10T02:05:37.666Z,80.83
2019-05-10T02:08:09.057Z,81.24
2019-05-10T02:10:41.383Z,81.19
2019-05-10T02:13:12.996Z,81.04
2019-05-10T02:15:44.504Z,81.02
2019-05-10T02:18:15.889Z,81.33
2019-05-10T02:20:47.276Z,81.43
2019-05-10T02:23:18.603Z,81.00
2019-05-10T02:26:08.345Z,80.82
2019-05-10T02:28:25.646Z,80.85
2019-05-10T02:30:57.010Z,81.19
2019-05-10T02:33:28.462Z,80.74
2019-05-10T02:35:59.790Z,80.66
2019-05-10T02:38:31.143Z,80.95
2019-05-10T02:41:02.631Z,80.81
2019-05-10T02:43:33.975Z,80.99
2019-05-10T02:46:05.600Z,80.87
2019-05-10T02:48:36.884Z,80.75
2019-05-10T02:51:08.173Z,80.88
2019-05-10T02:53:39.689Z,80.78
2019-05-10T02:56:29.694Z,79.95
2019-05-10T02:58:48.941Z,79.38
2019-05-10T03:01:23.308Z,78.85
2019-05-10T03:03:55.192Z,79.08
2019-05-10T03:06:29.237Z,79.26
2019-05-10T03:09:06.014Z,79.32
2019-05-10T03:11:49.205Z,79.45
2019-05-10T03:14:20.718Z,79.39
2019-05-10T03:16:52.894Z,79.72
2019-05-10T03:19:24.314Z,79.76
2019-05-10T03:22:09.351Z,80.13
2019-05-10T03:24:40.608Z,80.11
2019-05-10T03:27:12.018Z,80.30
2019-05-10T03:29:43.513Z,80.46
2019-05-10T03:32:15.017Z,80.31
2019-05-10T03:34:47.543Z,80.32
2019-05-10T03:37:18.946Z,80.27
2019-05-10T03:39:50.469Z,80.19
2019-05-10T03:42:22.056Z,80.42
2019-05-10T03:44:59.005Z,80.71
2019-05-10T03:47:30.435Z,80.84
2019-05-10T03:50:01.789Z,81.30
2019-05-10T03:52:33.181Z,81.33
2019-05-10T03:55:05.869Z,81.21
2019-05-10T03:57:37.411Z,81.28
2019-05-10T04:00:13.019Z,81.55
2019-05-10T04:02:44.474Z,81.43
2019-05-10T04:05:16.049Z,82.13
2019-05-10T04:07:47.503Z,82.29
2019-05-10T04:10:20.825Z,82.67
2019-05-10T04:12:51.917Z,82.29
2019-05-10T04:15:23.236Z,82.07
2019-05-10T04:17:54.588Z,81.93
2019-05-10T04:20:25.833Z,82.56
2019-05-10T04:23:09.103Z,82.37
2019-05-10T04:25:40.556Z,82.71
2019-05-10T04:28:12.018Z,82.71
2019-05-10T04:30:43.257Z,82.72
2019-05-10T04:33:14.539Z,82.48
2019-05-10T04:35:45.912Z,82.67
2019-05-10T04:38:17.486Z,82.71
2019-05-10T04:40:48.766Z,82.68
2019-05-10T04:43:20.090Z,83.03
2019-05-10T04:45:51.344Z,83.23
2019-05-10T04:48:22.707Z,83.56
2019-05-10T04:50:54.126Z,83.51
2019-05-10T04:53:25.518Z,83.03
2019-05-10T04:55:56.960Z,83.22
2019-05-10T04:58:28.289Z,82.87
2019-05-10T05:00:59.586Z,82.59
2019-05-10T05:03:30.891Z,83.04
2019-05-10T05:06:02.324Z,83.17
2019-05-10T05:08:33.620Z,82.85
2019-05-10T05:11:05.012Z,82.77
2019-05-10T05:13:36.303Z,83.11
2019-05-10T05:16:07.650Z,82.85
2019-05-10T05:18:39.169Z,83.02
2019-05-10T05:21:10.411Z,83.34
2019-05-10T05:23:41.698Z,82.98
2019-05-10T05:26:13.017Z,83.33
2019-05-10T05:28:44.301Z,83.39
2019-05-10T05:31:15.642Z,83.36
2019-05-10T05:33:47.159Z,82.74
2019-05-10T05:36:18.415Z,82.52
2019-05-10T05:38:49.752Z,82.86
2019-05-10T05:41:21.014Z,82.84
2019-05-10T05:43:52.258Z,83.29
2019-05-10T05:46:23.519Z,82.89
2019-05-10T05:48:54.792Z,83.17
2019-05-10T05:51:26.019Z,82.77
2019-05-10T05:53:57.326Z,83.11
2019-05-10T05:56:28.613Z,82.61
2019-05-10T05:58:59.975Z,82.38
2019-05-10T06:01:31.277Z,82.38
2019-05-10T06:04:06.216Z,82.09
2019-05-10T06:06:36.032Z,82.43
2019-05-10T06:09:08.446Z,81.83
2019-05-10T06:11:39.704Z,81.31
2019-05-10T06:14:12.850Z,80.97
2019-05-10T06:16:44.976Z,80.71
2019-05-10T06:23:05.067Z,80.23
2019-05-10T06:25:38.139Z,80.12
2019-05-10T06:27:54.912Z,80.67
2019-05-10T06:30:26.200Z,78.90
2019-05-10T06:33:00.965Z,78.77
2019-05-10T06:35:30.856Z,78.13
2019-05-10T06:38:02.309Z,77.50
2019-05-10T06:40:37.525Z,77.81
2019-05-10T06:43:12.922Z,75.45
2019-05-10T06:45:39.764Z,74.68
2019-05-10T06:48:11.117Z,73.49
2019-05-10T06:50:42.375Z,72.57
2019-05-10T06:53:14.115Z,71.92
2019-05-10T06:55:45.543Z,72.74
2019-05-10T06:58:16.827Z,70.66
2019-05-10T07:00:48.106Z,70.95
2019-05-10T07:03:19.555Z,71.10
2019-05-10T07:05:50.908Z,70.84
2019-05-10T07:08:22.269Z,69.72
2019-05-10T07:10:53.632Z,70.00
2019-05-10T07:13:25.058Z,68.50
2019-05-10T07:15:56.335Z,69.09
2019-05-10T07:18:27.868Z,68.31
2019-05-10T07:21:00.940Z,66.90
2019-05-10T07:23:32.296Z,66.65
2019-05-10T07:26:03.810Z,68.26
2019-05-10T07:28:35.268Z,68.72
2019-05-10T07:31:06.607Z,67.54
2019-05-10T07:33:40.106Z,66.96
2019-05-10T07:36:15.136Z,65.56
2019-05-10T07:38:45.189Z,64.62
2019-05-10T07:41:19.585Z,66.34
2019-05-10T07:44:00.763Z,65.83
2019-05-10T07:46:32.558Z,67.31
2019-05-10T07:49:03.945Z,64.61
2019-05-10T07:51:35.263Z,62.88
2019-05-10T07:54:06.827Z,64.28
2019-05-10T07:56:45.732Z,65.95
2019-05-10T07:59:22.083Z,63.64
2019-05-10T08:01:50.715Z,63.54
2019-05-10T08:04:28.848Z,65.44
2019-05-10T08:06:55.279Z,64.58
2019-05-10T08:09:26.536Z,61.94
2019-05-10T08:12:03.177Z,64.61
2019-05-10T08:14:30.782Z,64.38
2019-05-10T08:17:06.148Z,62.63
2019-05-10T08:19:37.541Z,62.90
2019-05-10T08:22:09.354Z,64.64
2019-05-10T08:24:44.542Z,63.03
2019-05-10T08:27:14.887Z,62.34
2019-05-10T08:29:52.869Z,62.64
2019-05-10T08:32:24.222Z,62.97
2019-05-10T08:34:55.750Z,62.25
2019-05-10T08:37:37.321Z,57.74
2019-05-10T08:40:05.352Z,57.89
2019-05-10T08:42:47.875Z,60.04
2019-05-10T08:45:12.401Z,59.03
2019-05-10T08:47:43.258Z,56.41
2019-05-10T08:50:29.315Z,57.40
2019-05-10T08:52:47.943Z,58.62
2019-05-10T08:55:19.594Z,57.12
2019-05-10T08:57:52.539Z,57.91
2019-05-10T09:00:41.544Z,56.08
2019-05-10T09:03:01.025Z,55.56
2019-05-10T09:05:31.893Z,58.45
2019-05-10T09:08:05.844Z,56.41
2019-05-10T09:10:37.083Z,57.07
2019-05-10T09:13:08.465Z,56.99
2019-05-10T09:15:43.244Z,56.47
2019-05-10T09:18:12.999Z,56.25
2019-05-10T09:20:44.490Z,57.96
2019-05-10T09:23:19.995Z,56.53
2019-05-10T09:25:49.095Z,57.15
2019-05-10T09:28:21.915Z,58.00
2019-05-10T09:31:00.376Z,55.23
2019-05-10T09:33:26.418Z,54.04
2019-05-10T09:35:59.345Z,53.99
2019-05-10T09:38:37.155Z,56.20
2019-05-10T09:41:03.916Z,55.40
2019-05-10T09:43:42.419Z,54.79
2019-05-10T09:46:09.085Z,55.25
2019-05-10T09:48:44.687Z,51.18
2019-05-10T09:51:19.082Z,52.75
2019-05-10T09:53:48.630Z,54.17
2019-05-10T09:56:20.193Z,53.73
2019-05-10T09:59:07.940Z,52.97
2019-05-10T10:01:39.562Z,52.66
2019-05-10T10:04:11.078Z,51.02
2019-05-10T10:06:48.262Z,52.80
2019-05-10T10:09:17.160Z,50.64
2019-05-10T10:11:58.099Z,52.74
2019-05-10T10:14:22.544Z,50.21
2019-05-10T10:16:58.168Z,51.76
2019-05-10T10:19:27.842Z,49.58
2019-05-10T10:21:59.341Z,49.27
2019-05-10T10:24:30.615Z,50.60
2019-05-10T10:27:03.142Z,51.21
2019-05-10T10:29:38.276Z,50.60
2019-05-10T10:32:08.071Z,50.01
2019-05-10T10:34:43.033Z,51.43
2019-05-10T10:37:14.835Z,51.25
2019-05-10T10:39:47.699Z,51.83
2019-05-10T10:42:19.002Z,50.87
2019-05-10T10:44:50.450Z,50.39
2019-05-10T10:47:22.816Z,50.35
2019-05-10T10:49:54.813Z,50.29
2019-05-10T10:52:27.797Z,52.33
2019-05-10T10:54:59.361Z,50.20
2019-05-10T10:57:30.670Z,51.38
2019-05-10T11:00:02.042Z,49.18
2019-05-10T11:02:34.128Z,49.12
2019-05-10T11:05:07.341Z,46.03
2019-05-10T11:07:43.041Z,48.19
2019-05-10T11:10:18.841Z,49.60
2019-05-10T11:12:45.489Z,49.33
2019-05-10T11:15:26.118Z,49.47
2019-05-10T11:17:50.663Z,49.33
2019-05-10T11:20:22.279Z,48.69
2019-05-10T11:22:53.647Z,48.41
2019-05-10T11:25:24.991Z,48.21
2019-05-10T11:27:58.552Z,47.17
2019-05-10T11:30:29.174Z,46.62
2019-05-10T11:33:00.585Z,47.19
2019-05-10T11:35:34.465Z,45.54
2019-05-10T11:38:06.567Z,44.41
2019-05-10T11:40:38.110Z,48.27
2019-05-10T11:43:10.073Z,46.98
2019-05-10T11:45:44.133Z,45.69
2019-05-10T11:48:17.201Z,47.75
2019-05-10T11:50:51.114Z,45.56
2019-05-10T11:53:24.014Z,44.62
2019-05-10T11:55:55.174Z,46.69
2019-05-10T11:58:26.513Z,43.45
2019-05-10T12:03:31.807Z,48.26
2019-05-10T12:06:08.814Z,43.64
2019-05-10T12:08:36.851Z,44.09
2019-05-10T12:11:20.701Z,40.26
2019-05-10T12:13:41.389Z,39.84
2019-05-10T12:16:16.860Z,39.73
2019-05-10T12:19:01.357Z,41.08
2019-05-10T12:21:21.768Z,40.58
2019-05-10T12:23:56.625Z,43.57
2019-05-10T12:26:20.249Z,45.49
2019-05-10T12:29:11.997Z,42.72
2019-05-10T12:31:41.485Z,41.76
2019-05-10T12:34:16.279Z,39.90
2019-05-10T12:36:47.659Z,42.00
2019-05-10T12:39:21.302Z,36.31
2019-05-10T12:41:53.130Z,38.27
2019-05-10T12:44:24.655Z,38.62
2019-05-10T12:46:56.238Z,39.62
2019-05-10T12:49:28.504Z,39.24
2019-05-10T12:51:59.841Z,40.11
2019-05-10T12:54:31.707Z,37.99
2019-05-10T12:57:04.171Z,39.95
2019-05-10T12:59:36.582Z,40.08
2019-05-10T13:02:11.106Z,39.88
2019-05-10T13:04:41.391Z,39.13
2019-05-10T13:07:13.780Z,40.60
2019-05-10T13:09:50.135Z,38.83
2019-05-10T13:12:23.349Z,40.74
2019-05-10T13:14:54.859Z,40.89
2019-05-10T13:17:28.368Z,39.42
2019-05-10T13:20:02.028Z,39.35
2019-05-10T13:22:37.608Z,38.80
2019-05-10T13:25:08.390Z,40.74
2019-05-10T13:27:40.095Z,40.47
2019-05-10T13:30:12.428Z,39.12
2019-05-10T13:32:43.981Z,38.33
2019-05-10T13:35:15.656Z,40.79
2019-05-10T13:37:47.312Z,38.86
2019-05-10T13:40:18.967Z,39.23
2019-05-10T13:42:50.383Z,39.99
2019-05-10T13:45:21.717Z,37.87
2019-05-10T13:47:54.260Z,39.38
2019-05-10T13:50:25.653Z,42.32
2019-05-10T13:52:57.477Z,41.89
2019-05-10T13:55:29.164Z,42.42
2019-05-10T13:58:01.010Z,42.17
2019-05-10T14:00:34.144Z,42.83
2019-05-10T14:03:11.405Z,42.32
2019-05-10T14:05:40.267Z,44.56
2019-05-10T14:08:12.091Z,44.32
2019-05-10T14:10:43.521Z,43.83
2019-05-10T14:13:16.776Z,43.43
2019-05-10T14:15:48.303Z,42.09
2019-05-10T14:18:19.775Z,42.34
2019-05-10T14:20:51.441Z,43.46
2019-05-10T14:23:22.949Z,43.88
2019-05-10T14:25:54.234Z,42.83
2019-05-10T14:28:25.699Z,44.73
2019-05-10T14:30:58.921Z,42.36
2019-05-10T14:33:30.639Z,43.77
2019-05-10T14:36:03.238Z,45.21
2019-05-10T14:38:35.269Z,44.46
2019-05-10T14:41:10.674Z,44.38
2019-05-10T14:43:39.613Z,43.44
2019-05-10T14:46:13.711Z,44.99
2019-05-10T14:48:44.525Z,45.07
2019-05-10T14:51:15.918Z,46.17
2019-05-10T14:53:48.027Z,46.88
2019-05-10T14:56:19.815Z,46.22
2019-05-10T14:58:52.033Z,48.13
2019-05-10T15:01:23.770Z,48.81
2019-05-10T15:03:55.680Z,48.47
2019-05-10T15:06:30.720Z,49.10
2019-05-10T15:09:00.486Z,49.38
2019-05-10T15:11:33.255Z,50.06
2019-05-10T15:14:06.205Z,50.27
2019-05-10T15:16:37.844Z,49.50
2019-05-10T15:19:09.193Z,48.84
2019-05-10T15:21:40.628Z,47.64
2019-05-10T15:24:12.344Z,46.19
2019-05-10T15:26:46.148Z,43.21
2019-05-10T15:29:22.414Z,42.92
2019-05-10T15:31:51.969Z,44.37
2019-05-10T15:34:23.695Z,44.10
2019-05-10T15:37:10.757Z,43.19
2019-05-10T15:39:34.096Z,45.38
2019-05-10T15:42:05.685Z,44.45
2019-05-10T15:44:41.549Z,43.98
2019-05-10T15:47:20.575Z,44.06
2019-05-10T15:49:45.873Z,42.79
2019-05-10T15:52:18.108Z,42.51
2019-05-10T15:54:52.668Z,43.38
2019-05-10T15:57:24.355Z,42.67
2019-05-10T15:59:59.097Z,43.30
2019-05-10T16:02:29.131Z,44.21
2019-05-10T16:05:02.229Z,43.77
2019-05-10T16:07:34.032Z,44.19
2019-05-10T16:10:06.673Z,46.08
2019-05-10T16:12:43.010Z,44.04
2019-05-10T16:15:13.911Z,43.96
2019-05-10T16:17:44.446Z,44.15
2019-05-10T16:20:16.141Z,42.91
2019-05-10T16:22:47.510Z,42.56
2019-05-10T16:25:19.061Z,42.65
2019-05-10T16:27:50.637Z,43.31
2019-05-10T16:30:22.187Z,43.43
2019-05-10T16:32:53.659Z,43.99
2019-05-10T16:35:38.107Z,43.98
2019-05-10T16:37:57.865Z,43.81
2019-05-10T16:40:29.146Z,42.98
2019-05-10T16:43:00.566Z,43.00
2019-05-10T16:45:31.907Z,44.45
2019-05-10T16:48:05.918Z,44.42
2019-05-10T16:50:36.613Z,44.81
2019-05-10T16:53:08.179Z,45.67
2019-05-10T16:55:42.748Z,45.30
2019-05-10T16:58:15.369Z,44.68
2019-05-10T17:00:48.048Z,43.79
2019-05-10T17:03:20.675Z,46.51
2019-05-10T17:05:53.899Z,43.19
2019-05-10T17:08:25.170Z,43.54
2019-05-10T17:10:57.846Z,43.00
2019-05-10T17:13:29.204Z,43.36
2019-05-10T17:16:00.690Z,42.96
2019-05-10T17:18:32.114Z,43.29
2019-05-10T17:21:03.393Z,43.63
2019-05-10T17:23:34.934Z,44.27
2019-05-10T17:26:06.205Z,44.49
2019-05-10T17:28:40.501Z,44.24
2019-05-10T17:31:12.135Z,45.88
2019-05-10T17:33:44.322Z,45.79
2019-05-10T17:36:19.758Z,46.35
2019-05-10T17:38:53.477Z,46.05
2019-05-10T17:41:24.888Z,45.08
2019-05-10T17:43:57.337Z,45.30
2019-05-10T17:46:28.819Z,46.28
2019-05-10T17:49:00.383Z,45.19
2019-05-10T17:51:31.725Z,46.42
2019-05-10T17:54:03.848Z,46.97
2019-05-10T17:56:38.728Z,47.27
2019-05-10T17:59:11.898Z,47.44
2019-05-10T18:01:41.760Z,47.44
2019-05-10T18:04:14.809Z,47.56
2019-05-10T18:06:46.170Z,48.29
2019-05-10T18:09:17.849Z,48.68
2019-05-10T18:11:49.362Z,48.16
2019-05-10T18:14:21.005Z,48.25
2019-05-10T18:16:52.271Z,49.19
2019-05-10T18:19:26.336Z,49.34
2019-05-10T18:22:00.832Z,49.57
2019-05-10T18:24:36.265Z,50.26
2019-05-10T18:27:04.068Z,50.21
2019-05-10T18:29:35.784Z,50.36
2019-05-10T18:32:10.829Z,50.65
2019-05-10T18:34:40.688Z,51.61
2019-05-10T18:37:15.895Z,52.25
2019-05-10T18:39:47.387Z,52.82
2019-05-10T18:42:25.467Z,52.97
2019-05-10T18:44:54.137Z,53.00
2019-05-10T18:47:25.281Z,53.14
2019-05-10T18:49:56.651Z,53.72
2019-05-10T18:52:27.924Z,53.92
2019-05-10T18:55:06.463Z,54.36
2019-05-10T18:57:37.780Z,55.44
2019-05-10T19:00:10.425Z,54.83
2019-05-10T19:02:42.022Z,54.62
2019-05-10T19:05:13.580Z,55.46
2019-05-10T19:07:45.000Z,56.40
2019-05-10T19:10:16.412Z,56.32
2019-05-10T19:12:53.799Z,56.63
2019-05-10T19:15:20.820Z,56.92
2019-05-10T19:17:52.060Z,57.81
2019-05-10T19:20:23.410Z,59.18
2019-05-10T19:22:54.832Z,60.16
2019-05-10T19:25:26.249Z,61.02
2019-05-10T19:27:58.687Z,61.10
2019-05-10T19:30:30.031Z,61.45
2019-05-10T19:33:01.353Z,60.84
2019-05-10T19:35:35.843Z,60.92
2019-05-10T19:38:06.270Z,61.56
2019-05-10T19:40:37.685Z,61.15
2019-05-10T19:43:09.446Z,61.74
2019-05-10T19:45:40.794Z,62.93
2019-05-10T19:48:12.889Z,63.90
2019-05-10T19:50:44.545Z,62.94
2019-05-10T19:53:16.274Z,63.26
2019-05-10T19:55:51.501Z,64.30
2019-05-10T19:58:21.527Z,63.28
2019-05-10T20:00:53.412Z,63.04
2019-05-10T20:03:25.300Z,62.16
2019-05-10T20:05:57.533Z,62.07
2019-05-10T20:08:29.159Z,62.52
2019-05-10T20:11:01.848Z,62.43
2019-05-10T20:13:34.589Z,63.13
2019-05-10T20:16:06.053Z,62.72
2019-05-10T20:18:37.777Z,62.61
2019-05-10T20:21:09.736Z,62.01
2019-05-10T20:23:41.703Z,63.95
2019-05-10T20:26:13.129Z,64.38
2019-05-10T20:28:48.412Z,63.67
2019-05-10T20:31:20.445Z,62.60
2019-05-10T20:33:52.303Z,62.27
2019-05-10T20:36:24.211Z,62.66
2019-05-10T20:38:55.966Z,63.85
2019-05-10T20:41:27.717Z,63.40
2019-05-10T20:43:59.848Z,64.59
2019-05-10T20:46:31.300Z,65.38
2019-05-10T20:49:02.716Z,65.40
2019-05-10T20:51:35.991Z,64.48
2019-05-10T20:54:07.634Z,63.40
2019-05-10T20:56:40.849Z,63.79
2019-05-10T20:59:12.281Z,64.96
2019-05-10T21:01:44.105Z,65.06
2019-05-10T21:04:15.719Z,64.76
2019-05-10T21:06:47.270Z,64.92
2019-05-10T21:09:19.059Z,64.41
2019-05-10T21:11:50.851Z,64.77
2019-05-10T21:14:22.541Z,66.02
2019-05-10T21:16:54.086Z,66.91
2019-05-10T21:19:25.726Z,67.07
2019-05-10T21:21:57.194Z,66.11
2019-05-10T21:24:28.887Z,65.68
2019-05-10T21:27:00.541Z,66.09
2019-05-10T21:29:32.107Z,67.13
2019-05-10T21:32:03.588Z,67.95
2019-05-10T21:34:35.037Z,68.45
2019-05-10T21:37:06.442Z,69.12
2019-05-10T21:39:37.980Z,69.33
2019-05-10T21:42:09.284Z,69.17
2019-05-10T21:44:40.560Z,68.66
2019-05-10T21:47:11.965Z,68.92
2019-05-10T21:49:43.273Z,69.05
2019-05-10T21:52:14.660Z,71.01
2019-05-10T21:54:45.895Z,70.67
2019-05-10T21:57:17.307Z,70.94
2019-05-10T21:59:48.872Z,69.00
2019-05-10T22:02:20.303Z,69.52
2019-05-10T22:04:51.666Z,71.28
2019-05-10T22:07:23.267Z,71.29
2019-05-10T22:09:54.498Z,72.42
2019-05-10T22:12:25.960Z,74.80
2019-05-10T22:14:57.195Z,76.02
2019-05-10T22:17:28.541Z,76.49
2019-05-10T22:19:59.847Z,76.98
2019-05-10T22:22:31.112Z,76.96
2019-05-10T22:25:02.351Z,76.75
2019-05-10T22:27:34.741Z,75.70
2019-05-10T22:30:12.129Z,75.92
2019-05-10T22:32:42.159Z,76.41
2019-05-10T22:35:13.573Z,76.46
2019-05-10T22:37:44.939Z,75.00
2019-05-10T22:40:16.481Z,77.11
2019-05-10T22:42:47.851Z,77.55
2019-05-10T22:45:19.328Z,78.19
2019-05-10T22:47:50.638Z,78.86
2019-05-10T22:50:22.051Z,78.07
2019-05-10T22:52:53.474Z,77.12
2019-05-10T22:55:24.815Z,76.05
2019-05-10T22:57:56.049Z,76.47
2019-05-10T23:00:28.518Z,78.12
2019-05-10T23:02:59.813Z,77.96
2019-05-10T23:05:31.079Z,78.06
2019-05-10T23:08:02.315Z,79.44
2019-05-10T23:10:33.713Z,79.66
2019-05-10T23:13:05.186Z,80.76
2019-05-10T23:15:36.832Z,81.53
2019-05-10T23:18:08.066Z,81.87
2019-05-10T23:20:39.427Z,82.65
2019-05-10T23:23:10.667Z,82.84
2019-05-10T23:25:41.953Z,82.44
2019-05-10T23:28:13.320Z,81.87
2019-05-10T23:30:44.608Z,82.12
2019-05-10T23:33:15.938Z,80.91
2019-05-10T23:35:47.244Z,80.82
2019-05-10T23:38:18.500Z,80.75
2019-05-10T23:40:49.728Z,80.90
2019-05-10T23:43:21.060Z,81.00
2019-05-10T23:45:52.296Z,80.98
2019-05-10T23:48:23.555Z,81.51
2019-05-10T23:50:54.785Z,81.03
2019-05-10T23:53:26.123Z,80.22
2019-05-10T23:55:57.367Z,80.72
2019-05-10T23:58:28.690Z,81.52
